sensor_id;sensor_type;location;lat;lon;timestamp;pressure;altitude;pressure_sealevel;temperature;humidity
61643;BME280;47551;52.506;4.678;2022-12-18T00:00:06;102679.75;;;-3.18;100.00
61643;BME280;47551;52.506;4.678;2022-12-18T00:00:26;102680.56;;;-3.19;100.00
61643;BME280;47551;52.506;4.678;2022-12-18T00:00:47;102680.44;;;-3.22;100.00
61643;BME280;47551;52.506;4.678;2022-12-18T00:01:20;102676.88;;;-3.24;100.00
61643;BME280;47551;52.506;4.678;2022-12-18T00:01:40;102666.56;;;-3.24;100.00
61643;BME280;47551;52.506;4.678;2022-12-18T00:02:00;102678.69;;;-3.23;100.00
61643;BME280;47551;52.506;4.678;2022-12-18T00:02:26;102667.94;;;-3.32;100.00
61643;BME280;47551;52.506;4.678;2022-12-18T00:02:46;102676.50;;;-3.33;100.00
61643;BME280;47551;52.506;4.678;2022-12-18T00:03:07;102677.53;;;-3.30;100.00
61643;BME280;47551;52.506;4.678;2022-12-18T00:03:27;102675.00;;;-3.28;100.00
61643;BME280;47551;52.506;4.678;2022-12-18T00:03:51;102686.59;;;-3.38;100.00
61643;BME280;47551;52.506;4.678;2022-12-18T00:04:25;102674.44;;;-3.41;100.00
61643;BME280;47551;52.506;4.678;2022-12-18T00:04:46;102671.34;;;-3.33;100.00
61643;BME280;47551;52.506;4.678;2022-12-18T00:05:06;102674.44;;;-3.41;100.00
61643;BME280;47551;52.506;4.678;2022-12-18T00:05:27;102675.00;;;-3.28;100.00
61643;BME280;47551;52.506;4.678;2022-12-18T00:05:49;102671.34;;;-3.33;100.00
61643;BME280;47551;52.506;4.678;2022-12-18T00:06:10;102671.06;;;-3.40;100.00
61643;BME280;47551;52.506;4.678;2022-12-18T00:06:32;102667.53;;;-3.42;100.00
61643;BME280;47551;52.506;4.678;2022-12-18T00:06:55;102664.03;;;-3.44;100.00
61643;BME280;47551;52.506;4.678;2022-12-18T00:07:18;102662.38;;;-3.42;100.00
61643;BME280;47551;52.506;4.678;2022-12-18T00:07:39;102662.47;;;-3.40;100.00
61643;BME280;47551;52.506;4.678;2022-12-18T00:08:02;102659.75;;;-3.43;100.00
61643;BME280;47551;52.506;4.678;2022-12-18T00:08:22;102667.53;;;-3.42;100.00
61643;BME280;47551;52.506;4.678;2022-12-18T00:08:44;102669.19;;;-3.44;100.00
61643;BME280;47551;52.506;4.678;2022-12-18T00:09:04;102680.56;;;-3.39;100.00
61643;BME280;47551;52.506;4.678;2022-12-18T00:09:25;102669.50;;;-3.36;100.00
61643;BME280;47551;52.506;4.678;2022-12-18T00:09:45;102669.56;;;-3.35;100.00
61643;BME280;47551;52.506;4.678;2022-12-18T00:10:06;102666.84;;;-3.38;100.00
61643;BME280;47551;52.506;4.678;2022-12-18T00:10:28;102670.53;;;-3.32;100.00
61643;BME280;47551;52.506;4.678;2022-12-18T00:10:48;102676.75;;;-3.27;100.00
61643;BME280;47551;52.506;4.678;2022-12-18T00:11:12;102678.25;;;-3.32;100.00
61643;BME280;47551;52.506;4.678;2022-12-18T00:11:33;102679.41;;;-3.26;100.00
61643;BME280;47551;52.506;4.678;2022-12-18T00:11:56;102677.44;;;-3.31;100.00
61643;BME280;47551;52.506;4.678;2022-12-18T00:12:19;102673.78;;;-3.37;100.00
61643;BME280;47551;52.506;4.678;2022-12-18T00:12:39;102676.81;;;-3.45;100.00
61643;BME280;47551;52.506;4.678;2022-12-18T00:12:59;102675.25;;;-3.42;100.00
61643;BME280;47551;52.506;4.678;2022-12-18T00:13:20;102669.28;;;-3.41;100.00
61643;BME280;47551;52.506;4.678;2022-12-18T00:13:43;102674.25;;;-3.45;100.00
61643;BME280;47551;52.506;4.678;2022-12-18T00:14:03;102674.34;;;-3.44;100.00
61643;BME280;47551;52.506;4.678;2022-12-18T00:14:24;102683.81;;;-3.43;100.00
61643;BME280;47551;52.506;4.678;2022-12-18T00:14:44;102669.91;;;-3.46;100.00
61643;BME280;47551;52.506;4.678;2022-12-18T00:15:05;102675.06;;;-3.46;100.00
61643;BME280;47551;52.506;4.678;2022-12-18T00:15:25;102669.09;;;-3.45;100.00
61643;BME280;47551;52.506;4.678;2022-12-18T00:15:46;102669.97;;;-3.45;100.00
61643;BME280;47551;52.506;4.678;2022-12-18T00:16:11;102672.53;;;-3.45;100.00
61643;BME280;47551;52.506;4.678;2022-12-18T00:16:32;102665.78;;;-3.43;100.00
61643;BME280;47551;52.506;4.678;2022-12-18T00:16:55;102670.06;;;-3.43;100.00
61643;BME280;47551;52.506;4.678;2022-12-18T00:17:15;102673.50;;;-3.43;100.00
61643;BME280;47551;52.506;4.678;2022-12-18T00:17:35;102675.13;;;-3.45;100.00
61643;BME280;47551;52.506;4.678;2022-12-18T00:17:56;102682.13;;;-3.42;100.00
61643;BME280;47551;52.506;4.678;2022-12-18T00:18:16;102669.91;;;-3.46;100.00
61643;BME280;47551;52.506;4.678;2022-12-18T00:18:37;102680.22;;;-3.46;100.00
61643;BME280;47551;52.506;4.678;2022-12-18T00:18:57;102677.84;;;-3.42;100.00
61643;BME280;47551;52.506;4.678;2022-12-18T00:19:18;102678.81;;;-3.40;100.00
61643;BME280;47551;52.506;4.678;2022-12-18T00:19:38;102676.09;;;-3.43;100.00
61643;BME280;47551;52.506;4.678;2022-12-18T00:19:58;102683.69;;;-3.46;100.00
61643;BME280;47551;52.506;4.678;2022-12-18T00:20:19;102676.28;;;-3.38;100.00
61643;BME280;47551;52.506;4.678;2022-12-18T00:20:48;102685.28;;;-3.48;100.00
61643;BME280;47551;52.506;4.678;2022-12-18T00:21:10;102680.13;;;-3.48;100.00
61643;BME280;47551;52.506;4.678;2022-12-18T00:21:31;102684.38;;;-3.50;100.00
61643;BME280;47551;52.506;4.678;2022-12-18T00:21:53;102680.03;;;-3.51;100.00
61643;BME280;47551;52.506;4.678;2022-12-18T00:22:13;102690.41;;;-3.49;100.00
61643;BME280;47551;52.506;4.678;2022-12-18T00:22:34;102690.41;;;-3.49;100.00
61643;BME280;47551;52.506;4.678;2022-12-18T00:22:54;102687.88;;;-3.48;100.00
61643;BME280;47551;52.506;4.678;2022-12-18T00:23:14;102685.28;;;-3.48;100.00
61643;BME280;47551;52.506;4.678;2022-12-18T00:23:38;102689.66;;;-3.47;100.00
61643;BME280;47551;52.506;4.678;2022-12-18T00:24:08;102682.66;;;-3.49;100.00
61643;BME280;47551;52.506;4.678;2022-12-18T00:24:29;102686.22;;;-3.47;100.00
61643;BME280;47551;52.506;4.678;2022-12-18T00:24:49;102684.50;;;-3.47;100.00
61643;BME280;47551;52.506;4.678;2022-12-18T00:25:12;102687.97;;;-3.46;100.00
61643;BME280;47551;52.506;4.678;2022-12-18T00:25:36;102694.00;;;-3.46;100.00
61643;BME280;47551;52.506;4.678;2022-12-18T00:26:10;102693.16;;;-3.45;100.00
61643;BME280;47551;52.506;4.678;2022-12-18T00:26:36;102685.38;;;-3.46;100.00
61643;BME280;47551;52.506;4.678;2022-12-18T00:26:56;102690.34;;;-3.51;100.00
61643;BME280;47551;52.506;4.678;2022-12-18T00:27:17;102692.78;;;-3.54;100.00
61643;BME280;47551;52.506;4.678;2022-12-18T00:27:37;102685.84;;;-3.55;100.00
61643;BME280;47551;52.506;4.678;2022-12-18T00:27:57;102687.47;;;-3.57;100.00
61643;BME280;47551;52.506;4.678;2022-12-18T00:28:18;102691.75;;;-3.58;100.00
61643;BME280;47551;52.506;4.678;2022-12-18T00:28:38;102691.00;;;-3.55;100.00
61643;BME280;47551;52.506;4.678;2022-12-18T00:29:01;102690.19;;;-3.54;100.00
61643;BME280;47551;52.506;4.678;2022-12-18T00:29:21;102690.13;;;-3.55;100.00
61643;BME280;47551;52.506;4.678;2022-12-18T00:29:42;102687.34;;;-3.60;100.00
61643;BME280;47551;52.506;4.678;2022-12-18T00:30:02;102682.31;;;-3.57;100.00
61643;BME280;47551;52.506;4.678;2022-12-18T00:30:23;102682.47;;;-3.54;100.00
61643;BME280;47551;52.506;4.678;2022-12-18T00:30:43;102693.72;;;-3.52;100.00
61643;BME280;47551;52.506;4.678;2022-12-18T00:31:05;102691.81;;;-3.56;100.00
61643;BME280;47551;52.506;4.678;2022-12-18T00:31:26;102691.13;;;-3.52;100.00
61643;BME280;47551;52.506;4.678;2022-12-18T00:31:46;102687.53;;;-3.55;100.00
61643;BME280;47551;52.506;4.678;2022-12-18T00:32:07;102689.38;;;-3.53;100.00
61643;BME280;47551;52.506;4.678;2022-12-18T00:32:27;102688.34;;;-3.56;100.00
61643;BME280;47551;52.506;4.678;2022-12-18T00:32:47;102685.91;;;-3.53;100.00
61643;BME280;47551;52.506;4.678;2022-12-18T00:33:08;102690.34;;;-3.51;100.00
61643;BME280;47551;52.506;4.678;2022-12-18T00:33:28;102687.63;;;-3.54;100.00
61643;BME280;47551;52.506;4.678;2022-12-18T00:33:49;102684.22;;;-3.53;100.00
61643;BME280;47551;52.506;4.678;2022-12-18T00:34:11;102685.97;;;-3.52;100.00
61643;BME280;47551;52.506;4.678;2022-12-18T00:34:31;102691.28;;;-3.49;100.00
61643;BME280;47551;52.506;4.678;2022-12-18T00:34:52;102692.09;;;-3.50;100.00
61643;BME280;47551;52.506;4.678;2022-12-18T00:35:12;102687.75;;;-3.51;100.00
61643;BME280;47551;52.506;4.678;2022-12-18T00:35:32;102686.94;;;-3.50;100.00
61643;BME280;47551;52.506;4.678;2022-12-18T00:35:53;102690.41;;;-3.49;100.00
61643;BME280;47551;52.506;4.678;2022-12-18T00:36:21;102685.28;;;-3.48;100.00
61643;BME280;47551;52.506;4.678;2022-12-18T00:36:41;102682.72;;;-3.48;100.00
61643;BME280;47551;52.506;4.678;2022-12-18T00:37:01;102682.59;;;-3.51;100.00
61643;BME280;47551;52.506;4.678;2022-12-18T00:37:22;102682.72;;;-3.48;100.00
61643;BME280;47551;52.506;4.678;2022-12-18T00:37:45;102679.22;;;-3.50;100.00
61643;BME280;47551;52.506;4.678;2022-12-18T00:38:05;102690.44;;;-3.48;100.00
61643;BME280;47551;52.506;4.678;2022-12-18T00:38:26;102683.63;;;-3.47;100.00
61643;BME280;47551;52.506;4.678;2022-12-18T00:38:47;102680.22;;;-3.46;100.00
61643;BME280;47551;52.506;4.678;2022-12-18T00:39:08;102677.44;;;-3.51;100.00
61643;BME280;47551;52.506;4.678;2022-12-18T00:39:28;102684.38;;;-3.50;100.00
61643;BME280;47551;52.506;4.678;2022-12-18T00:39:48;102688.78;;;-3.47;100.00
61643;BME280;47551;52.506;4.678;2022-12-18T00:40:10;102688.69;;;-3.49;100.00
61643;BME280;47551;52.506;4.678;2022-12-18T00:40:30;102683.69;;;-3.46;100.00
61643;BME280;47551;52.506;4.678;2022-12-18T00:40:50;102684.66;;;-3.44;100.00
61643;BME280;47551;52.506;4.678;2022-12-18T00:41:12;102684.66;;;-3.44;100.00
61643;BME280;47551;52.506;4.678;2022-12-18T00:41:33;102688.16;;;-3.42;100.00
61643;BME280;47551;52.506;4.678;2022-12-18T00:42:15;102681.84;;;-3.48;100.00
61643;BME280;47551;52.506;4.678;2022-12-18T00:42:54;102687.97;;;-3.46;100.00
61643;BME280;47551;52.506;4.678;2022-12-18T00:43:26;102683.69;;;-3.46;100.00
61643;BME280;47551;52.506;4.678;2022-12-18T00:43:47;102673.41;;;-3.44;100.00
61643;BME280;47551;52.506;4.678;2022-12-18T00:44:10;102674.34;;;-3.44;100.00
61643;BME280;47551;52.506;4.678;2022-12-18T00:44:30;102669.19;;;-3.44;100.00
61643;BME280;47551;52.506;4.678;2022-12-18T00:44:50;102679.34;;;-3.47;100.00
61643;BME280;47551;52.506;4.678;2022-12-18T00:45:11;102676.53;;;-3.51;100.00
61643;BME280;47551;52.506;4.678;2022-12-18T00:45:34;102673.91;;;-3.53;100.00
61643;BME280;47551;52.506;4.678;2022-12-18T00:45:54;102671.34;;;-3.53;100.00
61643;BME280;47551;52.506;4.678;2022-12-18T00:46:14;102676.50;;;-3.53;100.00
61643;BME280;47551;52.506;4.678;2022-12-18T00:46:35;102671.25;;;-3.54;100.00
61643;BME280;47551;52.506;4.678;2022-12-18T00:46:55;102665.22;;;-3.55;100.00
61643;BME280;47551;52.506;4.678;2022-12-18T00:47:18;102672.00;;;-3.57;100.00
61643;BME280;47551;52.506;4.678;2022-12-18T00:47:39;102671.19;;;-3.56;100.00
61643;BME280;47551;52.506;4.678;2022-12-18T00:48:00;102677.16;;;-3.57;100.00
61643;BME280;47551;52.506;4.678;2022-12-18T00:48:20;102669.22;;;-3.62;100.00
61643;BME280;47551;52.506;4.678;2022-12-18T00:48:44;102666.56;;;-3.63;100.00
61643;BME280;47551;52.506;4.678;2022-12-18T00:49:04;102660.41;;;-3.67;100.00
61643;BME280;47551;52.506;4.678;2022-12-18T00:49:24;102664.72;;;-3.66;100.00
61643;BME280;47551;52.506;4.678;2022-12-18T00:49:45;102665.59;;;-3.65;100.00
61643;BME280;47551;52.506;4.678;2022-12-18T00:50:06;102669.28;;;-3.60;100.00
61643;BME280;47551;52.506;4.678;2022-12-18T00:50:29;102671.88;;;-3.60;100.00
61643;BME280;47551;52.506;4.678;2022-12-18T00:50:50;102665.06;;;-3.58;100.00
61643;BME280;47551;52.506;4.678;2022-12-18T00:51:10;102666.72;;;-3.60;100.00
61643;BME280;47551;52.506;4.678;2022-12-18T00:51:33;102667.59;;;-3.60;100.00
61643;BME280;47551;52.506;4.678;2022-12-18T00:51:54;102666.72;;;-3.60;100.00
61643;BME280;47551;52.506;4.678;2022-12-18T00:52:14;102666.72;;;-3.60;100.00
61643;BME280;47551;52.506;4.678;2022-12-18T00:52:34;102661.69;;;-3.57;100.00
61643;BME280;47551;52.506;4.678;2022-12-18T00:52:55;102663.47;;;-3.56;100.00
61643;BME280;47551;52.506;4.678;2022-12-18T00:53:15;102666.03;;;-3.56;100.00
61643;BME280;47551;52.506;4.678;2022-12-18T00:53:35;102656.69;;;-3.54;100.00
61643;BME280;47551;52.506;4.678;2022-12-18T00:53:56;102666.22;;;-3.51;100.00
61643;BME280;47551;52.506;4.678;2022-12-18T00:54:17;102658.72;;;-3.47;100.00
61643;BME280;47551;52.506;4.678;2022-12-18T00:54:37;102656.94;;;-3.48;100.00
61643;BME280;47551;52.506;4.678;2022-12-18T00:54:57;102664.47;;;-3.52;100.00
61643;BME280;47551;52.506;4.678;2022-12-18T00:55:18;102659.31;;;-3.52;100.00
61643;BME280;47551;52.506;4.678;2022-12-18T00:55:39;102662.84;;;-3.50;100.00
61643;BME280;47551;52.506;4.678;2022-12-18T00:55:59;102663.78;;;-3.48;100.00
61643;BME280;47551;52.506;4.678;2022-12-18T00:56:20;102658.59;;;-3.50;100.00
61643;BME280;47551;52.506;4.678;2022-12-18T00:56:40;102669.50;;;-3.55;100.00
61643;BME280;47551;52.506;4.678;2022-12-18T00:57:00;102665.22;;;-3.55;100.00
61643;BME280;47551;52.506;4.678;2022-12-18T00:57:24;102672.00;;;-3.57;100.00
61643;BME280;47551;52.506;4.678;2022-12-18T00:57:44;102664.34;;;-3.55;100.00
61643;BME280;47551;52.506;4.678;2022-12-18T00:58:04;102667.72;;;-3.56;100.00
61643;BME280;47551;52.506;4.678;2022-12-18T00:58:24;102665.16;;;-3.56;100.00
61643;BME280;47551;52.506;4.678;2022-12-18T00:58:45;102672.06;;;-3.55;100.00
61643;BME280;47551;52.506;4.678;2022-12-18T00:59:06;102673.91;;;-3.53;100.00
61643;BME280;47551;52.506;4.678;2022-12-18T00:59:26;102674.78;;;-3.52;100.00
61643;BME280;47551;52.506;4.678;2022-12-18T00:59:46;102674.78;;;-3.52;100.00
61643;BME280;47551;52.506;4.678;2022-12-18T01:00:10;102668.91;;;-3.50;100.00
61643;BME280;47551;52.506;4.678;2022-12-18T01:00:30;102668.66;;;-3.54;100.00
61643;BME280;47551;52.506;4.678;2022-12-18T01:00:51;102679.22;;;-3.50;100.00
61643;BME280;47551;52.506;4.678;2022-12-18T01:01:12;102669.09;;;-3.45;100.00
61643;BME280;47551;52.506;4.678;2022-12-18T01:01:33;102673.38;;;-3.46;100.00
61643;BME280;47551;52.506;4.678;2022-12-18T01:01:56;102677.44;;;-3.51;100.00
61643;BME280;47551;52.506;4.678;2022-12-18T01:02:19;102678.25;;;-3.52;100.00
61643;BME280;47551;52.506;4.678;2022-12-18T01:02:42;102680.09;;;-3.49;100.00
61643;BME280;47551;52.506;4.678;2022-12-18T01:03:03;102681.06;;;-3.47;100.00
61643;BME280;47551;52.506;4.678;2022-12-18T01:03:23;102681.56;;;-3.54;100.00
61643;BME280;47551;52.506;4.678;2022-12-18T01:03:43;102678.91;;;-3.56;100.00
61643;BME280;47551;52.506;4.678;2022-12-18T01:04:05;102686.59;;;-3.58;100.00
61643;BME280;47551;52.506;4.678;2022-12-18T01:04:25;102683.94;;;-3.59;100.00
61643;BME280;47551;52.506;4.678;2022-12-18T01:04:48;102685.03;;;-3.54;100.00
61643;BME280;47551;52.506;4.678;2022-12-18T01:05:13;102686.81;;;-3.53;100.00
61643;BME280;47551;52.506;4.678;2022-12-18T01:05:33;102682.19;;;-3.60;100.00
61643;BME280;47551;52.506;4.678;2022-12-18T01:05:54;102694.97;;;-3.62;100.00
61643;BME280;47551;52.506;4.678;2022-12-18T01:06:15;102686.50;;;-3.59;100.00
61643;BME280;47551;52.506;4.678;2022-12-18T01:06:35;102690.25;;;-3.52;100.00
61643;BME280;47551;52.506;4.678;2022-12-18T01:06:56;102692.53;;;-3.59;100.00
61643;BME280;47551;52.506;4.678;2022-12-18T01:07:16;102689.81;;;-3.62;100.00
61643;BME280;47551;52.506;4.678;2022-12-18T01:07:42;102689.47;;;-3.69;100.00
61643;BME280;47551;52.506;4.678;2022-12-18T01:08:03;102693.97;;;-3.65;100.00
61643;BME280;47551;52.506;4.678;2022-12-18T01:08:24;102689.63;;;-3.66;100.00
61643;BME280;47551;52.506;4.678;2022-12-18T01:08:44;102692.22;;;-3.66;100.00
61643;BME280;47551;52.506;4.678;2022-12-18T01:09:07;102699.06;;;-3.67;100.00
61643;BME280;47551;52.506;4.678;2022-12-18T01:09:28;102696.34;;;-3.70;100.00
61643;BME280;47551;52.506;4.678;2022-12-18T01:09:50;102693.97;;;-3.65;100.00
61643;BME280;47551;52.506;4.678;2022-12-18T01:10:12;102695.47;;;-3.70;100.00
61643;BME280;47551;52.506;4.678;2022-12-18T01:10:32;102700.63;;;-3.70;100.00
61643;BME280;47551;52.506;4.678;2022-12-18T01:10:52;102702.31;;;-3.71;100.00
61643;BME280;47551;52.506;4.678;2022-12-18T01:11:16;102697.06;;;-3.72;100.00
61643;BME280;47551;52.506;4.678;2022-12-18T01:11:37;102705.91;;;-3.67;100.00
61643;BME280;47551;52.506;4.678;2022-12-18T01:11:58;102698.25;;;-3.66;100.00
61643;BME280;47551;52.506;4.678;2022-12-18T01:12:18;102695.66;;;-3.66;100.00
61643;BME280;47551;52.506;4.678;2022-12-18T01:12:39;102701.84;;;-3.62;100.00
61643;BME280;47551;52.506;4.678;2022-12-18T01:12:59;102698.53;;;-3.60;100.00
61643;BME280;47551;52.506;4.678;2022-12-18T01:13:19;102698.53;;;-3.60;100.00
61643;BME280;47551;52.506;4.678;2022-12-18T01:13:40;102698.47;;;-3.61;100.00
61643;BME280;47551;52.506;4.678;2022-12-18T01:14:00;102696.63;;;-3.64;100.00
61643;BME280;47551;52.506;4.678;2022-12-18T01:14:21;102690.59;;;-3.64;100.00
61643;BME280;47551;52.506;4.678;2022-12-18T01:14:41;102690.44;;;-3.67;100.00
61643;BME280;47551;52.506;4.678;2022-12-18T01:15:02;102687.19;;;-3.63;100.00
61643;BME280;47551;52.506;4.678;2022-12-18T01:15:23;102693.22;;;-3.63;100.00
61643;BME280;47551;52.506;4.678;2022-12-18T01:15:50;102701.03;;;-3.61;100.00
61643;BME280;47551;52.506;4.678;2022-12-18T01:16:15;102700.22;;;-3.60;100.00
61643;BME280;47551;52.506;4.678;2022-12-18T01:16:36;102692.00;;;-3.51;100.00
61643;BME280;47551;52.506;4.678;2022-12-18T01:16:56;102691.88;;;-3.54;100.00
61643;BME280;47551;52.506;4.678;2022-12-18T01:17:16;102697.66;;;-3.60;100.00
61643;BME280;47551;52.506;4.678;2022-12-18T01:17:36;102692.34;;;-3.63;100.00
61643;BME280;47551;52.506;4.678;2022-12-18T01:17:57;102688.81;;;-3.65;100.00
61643;BME280;47551;52.506;4.678;2022-12-18T01:18:17;102692.22;;;-3.66;100.00
61643;BME280;47551;52.506;4.678;2022-12-18T01:18:37;102698.38;;;-3.63;100.00
61643;BME280;47551;52.506;4.678;2022-12-18T01:18:58;102698.25;;;-3.66;100.00
61643;BME280;47551;52.506;4.678;2022-12-18T01:19:18;102692.06;;;-3.69;100.00
61643;BME280;47551;52.506;4.678;2022-12-18T01:19:41;102702.50;;;-3.66;100.00
61643;BME280;47551;52.506;4.678;2022-12-18T01:20:02;102701.53;;;-3.68;100.00
61643;BME280;47551;52.506;4.678;2022-12-18T01:20:23;102702.50;;;-3.66;100.00
61643;BME280;47551;52.506;4.678;2022-12-18T01:20:43;102695.75;;;-3.64;100.00
61643;BME280;47551;52.506;4.678;2022-12-18T01:21:13;102700.03;;;-3.65;100.00
61643;BME280;47551;52.506;4.678;2022-12-18T01:21:33;102701.94;;;-3.61;100.00
61643;BME280;47551;52.506;4.678;2022-12-18T01:21:54;102704.28;;;-3.65;100.00
61643;BME280;47551;52.506;4.678;2022-12-18T01:22:14;102698.81;;;-3.53;100.00
61643;BME280;47551;52.506;4.678;2022-12-18T01:22:35;102699.25;;;-3.62;100.00
61643;BME280;47551;52.506;4.678;2022-12-18T01:22:56;102702.94;;;-3.57;100.00
61643;BME280;47551;52.506;4.678;2022-12-18T01:23:16;102703.88;;;-3.55;100.00
61643;BME280;47551;52.506;4.678;2022-12-18T01:23:42;102701.03;;;-3.61;100.00
61643;BME280;47551;52.506;4.678;2022-12-18T01:24:02;102710.38;;;-3.63;100.00
61643;BME280;47551;52.506;4.678;2022-12-18T01:24:23;102704.56;;;-3.59;100.00
61643;BME280;47551;52.506;4.678;2022-12-18T01:24:43;102704.56;;;-3.59;100.00
61643;BME280;47551;52.506;4.678;2022-12-18T01:25:07;102707.22;;;-3.58;100.00
61643;BME280;47551;52.506;4.678;2022-12-18T01:25:27;102699.41;;;-3.59;100.00
61643;BME280;47551;52.506;4.678;2022-12-18T01:25:47;102707.97;;;-3.60;100.00
61643;BME280;47551;52.506;4.678;2022-12-18T01:26:10;102704.50;;;-3.61;100.00
61643;BME280;47551;52.506;4.678;2022-12-18T01:26:31;102707.13;;;-3.59;100.00
61643;BME280;47551;52.506;4.678;2022-12-18T01:26:51;102709.66;;;-3.61;100.00
61643;BME280;47551;52.506;4.678;2022-12-18T01:27:12;102702.66;;;-3.63;100.00
61643;BME280;47551;52.506;4.678;2022-12-18T01:27:33;102705.91;;;-3.67;100.00
61643;BME280;47551;52.506;4.678;2022-12-18T01:27:54;102702.22;;;-3.72;100.00
61643;BME280;47551;52.506;4.678;2022-12-18T01:28:14;102702.38;;;-3.69;100.00
61643;BME280;47551;52.506;4.678;2022-12-18T01:28:35;102703.47;;;-3.64;100.00
61643;BME280;47551;52.506;4.678;2022-12-18T01:28:56;102702.72;;;-3.62;100.00
61643;BME280;47551;52.506;4.678;2022-12-18T01:29:16;102704.41;;;-3.62;100.00
61643;BME280;47551;52.506;4.678;2022-12-18T01:29:37;102700.75;;;-3.67;100.00
61643;BME280;47551;52.506;4.678;2022-12-18T01:29:57;102695.50;;;-3.69;100.00
61643;BME280;47551;52.506;4.678;2022-12-18T01:30:17;102702.66;;;-3.63;100.00
61643;BME280;47551;52.506;4.678;2022-12-18T01:30:38;102702.66;;;-3.63;100.00
61643;BME280;47551;52.506;4.678;2022-12-18T01:31:10;102697.66;;;-3.60;100.00
61643;BME280;47551;52.506;4.678;2022-12-18T01:31:33;102699.13;;;-3.65;100.00
61643;BME280;47551;52.506;4.678;2022-12-18T01:31:55;102699.66;;;-3.72;100.00
61643;BME280;47551;52.506;4.678;2022-12-18T01:32:15;102698.09;;;-3.69;100.00
61643;BME280;47551;52.506;4.678;2022-12-18T01:32:36;102702.06;;;-3.75;100.00
61643;BME280;47551;52.506;4.678;2022-12-18T01:32:56;102697.34;;;-3.66;100.00
61643;BME280;47551;52.506;4.678;2022-12-18T01:33:16;102702.94;;;-3.57;100.00
61643;BME280;47551;52.506;4.678;2022-12-18T01:33:37;102700.28;;;-3.59;100.00
61643;BME280;47551;52.506;4.678;2022-12-18T01:33:59;102696.81;;;-3.59;100.00
61643;BME280;47551;52.506;4.678;2022-12-18T01:34:22;102697.66;;;-3.60;100.00
61643;BME280;47551;52.506;4.678;2022-12-18T01:34:42;102700.91;;;-3.64;100.00
61643;BME280;47551;52.506;4.678;2022-12-18T01:35:03;102692.94;;;-3.69;100.00
61643;BME280;47551;52.506;4.678;2022-12-18T01:35:23;102693.81;;;-3.68;100.00
61643;BME280;47551;52.506;4.678;2022-12-18T01:35:44;102696.94;;;-3.75;100.00
61643;BME280;47551;52.506;4.678;2022-12-18T01:36:04;102698.72;;;-3.74;100.00
61643;BME280;47551;52.506;4.678;2022-12-18T01:36:30;102699.75;;;-3.71;100.00
61643;BME280;47551;52.506;4.678;2022-12-18T01:36:50;102701.50;;;-3.70;100.00
61643;BME280;47551;52.506;4.678;2022-12-18T01:37:13;102703.25;;;-3.69;100.00
61643;BME280;47551;52.506;4.678;2022-12-18T01:37:33;102707.75;;;-3.65;100.00
61643;BME280;47551;52.506;4.678;2022-12-18T01:37:54;102709.28;;;-3.68;100.00
61643;BME280;47551;52.506;4.678;2022-12-18T01:38:15;102712.09;;;-3.64;100.00
61643;BME280;47551;52.506;4.678;2022-12-18T01:38:35;102710.44;;;-3.62;100.00
61643;BME280;47551;52.506;4.678;2022-12-18T01:38:56;102709.28;;;-3.68;100.00
61643;BME280;47551;52.506;4.678;2022-12-18T01:39:17;102710.91;;;-3.70;100.00
61643;BME280;47551;52.506;4.678;2022-12-18T01:39:37;102709.28;;;-3.68;100.00
61643;BME280;47551;52.506;4.678;2022-12-18T01:39:58;102709.16;;;-3.71;100.00
61643;BME280;47551;52.506;4.678;2022-12-18T01:40:21;102714.59;;;-3.65;100.00
61643;BME280;47551;52.506;4.678;2022-12-18T01:40:41;102713.78;;;-3.64;100.00
61643;BME280;47551;52.506;4.678;2022-12-18T01:41:02;102704.13;;;-3.68;100.00
61643;BME280;47551;52.506;4.678;2022-12-18T01:41:25;102708.25;;;-3.72;100.00
61643;BME280;47551;52.506;4.678;2022-12-18T01:42:13;102713.28;;;-3.75;100.00
61643;BME280;47551;52.506;4.678;2022-12-18T01:42:34;102707.13;;;-3.78;100.00
61643;BME280;47551;52.506;4.678;2022-12-18T01:42:58;102710.47;;;-3.79;100.00
61643;BME280;47551;52.506;4.678;2022-12-18T01:43:40;102712.38;;;-3.75;100.00
61643;BME280;47551;52.506;4.678;2022-12-18T01:44:00;102708.34;;;-3.70;100.00
61643;BME280;47551;52.506;4.678;2022-12-18T01:45:36;102713.66;;;-3.67;100.00
61643;BME280;47551;52.506;4.678;2022-12-18T01:45:59;102714.53;;;-3.67;100.00
61643;BME280;47551;52.506;4.678;2022-12-18T01:46:21;102708.41;;;-3.69;100.00
61643;BME280;47551;52.506;4.678;2022-12-18T01:46:42;102718.72;;;-3.69;100.00
61643;BME280;47551;52.506;4.678;2022-12-18T01:47:02;102705.91;;;-3.67;100.00
61643;BME280;47551;52.506;4.678;2022-12-18T01:47:30;102716.06;;;-3.70;100.00
61643;BME280;47551;52.506;4.678;2022-12-18T01:48:07;102710.78;;;-3.73;100.00
61643;BME280;47551;52.506;4.678;2022-12-18T01:48:28;102708.16;;;-3.75;100.00
61643;BME280;47551;52.506;4.678;2022-12-18T01:48:52;102703.03;;;-3.73;100.00
61643;BME280;47551;52.506;4.678;2022-12-18T01:49:16;102701.34;;;-3.73;100.00
61643;BME280;47551;52.506;4.678;2022-12-18T01:49:39;102701.44;;;-3.71;100.00
61643;BME280;47551;52.506;4.678;2022-12-18T01:50:05;102705.03;;;-3.68;100.00
61643;BME280;47551;52.506;4.678;2022-12-18T01:50:40;102705.75;;;-3.70;100.00
61643;BME280;47551;52.506;4.678;2022-12-18T01:51:02;102700.75;;;-3.67;100.00
61643;BME280;47551;52.506;4.678;2022-12-18T01:51:22;102701.69;;;-3.65;100.00
61643;BME280;47551;52.506;4.678;2022-12-18T01:51:46;102702.59;;;-3.65;100.00
61643;BME280;47551;52.506;4.678;2022-12-18T01:52:06;102708.50;;;-3.67;100.00
61643;BME280;47551;52.506;4.678;2022-12-18T01:52:29;102706.78;;;-3.67;100.00
61643;BME280;47551;52.506;4.678;2022-12-18T01:52:56;102712.00;;;-3.65;100.00
61643;BME280;47551;52.506;4.678;2022-12-18T01:53:21;102709.56;;;-3.62;100.00
61643;BME280;47551;52.506;4.678;2022-12-18T01:53:43;102716.50;;;-3.61;100.00
61643;BME280;47551;52.506;4.678;2022-12-18T01:54:04;102716.50;;;-3.61;100.00